sensor_id;sensor_type;location;lat;lon;timestamp;P1;durP1;ratioP1;P2;durP2;ratioP2
37657;SDS011;23500;53.268;8.308;2023-05-07T00:01:05;6.70;;;6.10;;
37657;SDS011;23500;53.268;8.308;2023-05-07T00:03:31;7.30;;;6.60;;
37657;SDS011;23500;53.268;8.308;2023-05-07T00:05:58;6.68;;;5.97;;
37657;SDS011;23500;53.268;8.308;2023-05-07T00:08:23;6.60;;;6.00;;
37657;SDS011;23500;53.268;8.308;2023-05-07T00:10:49;7.20;;;6.50;;
37657;SDS011;23500;53.268;8.308;2023-05-07T00:13:15;6.80;;;6.18;;
37657;SDS011;23500;53.268;8.308;2023-05-07T00:15:40;6.53;;;5.95;;
37657;SDS011;23500;53.268;8.308;2023-05-07T00:18:06;6.43;;;5.82;;
37657;SDS011;23500;53.268;8.308;2023-05-07T00:20:32;7.43;;;6.18;;
37657;SDS011;23500;53.268;8.308;2023-05-07T00:22:57;6.50;;;5.90;;
37657;SDS011;23500;53.268;8.308;2023-05-07T00:25:23;6.88;;;6.28;;
37657;SDS011;23500;53.268;8.308;2023-05-07T00:27:49;6.68;;;6.10;;
37657;SDS011;23500;53.268;8.308;2023-05-07T00:30:14;7.75;;;6.95;;
37657;SDS011;23500;53.268;8.308;2023-05-07T00:32:40;6.80;;;6.20;;
37657;SDS011;23500;53.268;8.308;2023-05-07T00:35:06;7.15;;;6.45;;
37657;SDS011;23500;53.268;8.308;2023-05-07T00:37:32;7.20;;;6.50;;
37657;SDS011;23500;53.268;8.308;2023-05-07T00:39:58;7.00;;;6.30;;
37657;SDS011;23500;53.268;8.308;2023-05-07T00:42:24;7.07;;;6.38;;
37657;SDS011;23500;53.268;8.308;2023-05-07T00:44:49;7.50;;;6.80;;
37657;SDS011;23500;53.268;8.308;2023-05-07T00:47:15;7.13;;;6.35;;
37657;SDS011;23500;53.268;8.308;2023-05-07T00:49:42;6.70;;;6.10;;
37657;SDS011;23500;53.268;8.308;2023-05-07T00:52:13;6.63;;;5.88;;
37657;SDS011;23500;53.268;8.308;2023-05-07T00:54:40;7.47;;;6.78;;
37657;SDS011;23500;53.268;8.308;2023-05-07T00:57:07;7.07;;;6.43;;
37657;SDS011;23500;53.268;8.308;2023-05-07T00:59:34;6.97;;;6.28;;
37657;SDS011;23500;53.268;8.308;2023-05-07T01:02:00;7.07;;;6.40;;
37657;SDS011;23500;53.268;8.308;2023-05-07T01:04:26;6.85;;;6.25;;
37657;SDS011;23500;53.268;8.308;2023-05-07T01:06:52;7.43;;;6.70;;
37657;SDS011;23500;53.268;8.308;2023-05-07T01:09:21;7.30;;;6.60;;
37657;SDS011;23500;53.268;8.308;2023-05-07T01:11:49;7.15;;;6.45;;
37657;SDS011;23500;53.268;8.308;2023-05-07T01:14:15;7.20;;;6.53;;
37657;SDS011;23500;53.268;8.308;2023-05-07T01:16:42;6.80;;;6.20;;
37657;SDS011;23500;53.268;8.308;2023-05-07T01:19:08;7.10;;;6.40;;
37657;SDS011;23500;53.268;8.308;2023-05-07T01:21:35;7.15;;;6.00;;
37657;SDS011;23500;53.268;8.308;2023-05-07T01:24:02;7.03;;;6.43;;
37657;SDS011;23500;53.268;8.308;2023-05-07T01:26:30;6.80;;;6.20;;
37657;SDS011;23500;53.268;8.308;2023-05-07T01:28:55;7.10;;;6.50;;
37657;SDS011;23500;53.268;8.308;2023-05-07T01:31:21;7.65;;;6.95;;
37657;SDS011;23500;53.268;8.308;2023-05-07T01:33:49;7.53;;;6.82;;
37657;SDS011;23500;53.268;8.308;2023-05-07T01:36:15;7.38;;;6.72;;
37657;SDS011;23500;53.268;8.308;2023-05-07T01:38:43;7.25;;;6.65;;
37657;SDS011;23500;53.268;8.308;2023-05-07T01:41:11;7.10;;;6.50;;
37657;SDS011;23500;53.268;8.308;2023-05-07T01:43:38;7.35;;;6.68;;
37657;SDS011;23500;53.268;8.308;2023-05-07T01:46:06;7.10;;;6.50;;
37657;SDS011;23500;53.268;8.308;2023-05-07T01:48:33;6.78;;;6.18;;
37657;SDS011;23500;53.268;8.308;2023-05-07T01:50:59;7.70;;;7.00;;
37657;SDS011;23500;53.268;8.308;2023-05-07T01:53:27;6.88;;;6.28;;
37657;SDS011;23500;53.268;8.308;2023-05-07T01:55:53;6.57;;;5.97;;
37657;SDS011;23500;53.268;8.308;2023-05-07T01:58:19;6.90;;;6.30;;
37657;SDS011;23500;53.268;8.308;2023-05-07T02:00:44;6.70;;;6.10;;
37657;SDS011;23500;53.268;8.308;2023-05-07T02:03:10;7.30;;;6.60;;
37657;SDS011;23500;53.268;8.308;2023-05-07T02:05:36;7.32;;;6.63;;
37657;SDS011;23500;53.268;8.308;2023-05-07T02:08:01;7.03;;;6.43;;
37657;SDS011;23500;53.268;8.308;2023-05-07T02:10:27;6.38;;;5.88;;
37657;SDS011;23500;53.268;8.308;2023-05-07T02:12:53;7.05;;;6.38;;
37657;SDS011;23500;53.268;8.308;2023-05-07T02:15:18;7.05;;;6.45;;
37657;SDS011;23500;53.268;8.308;2023-05-07T02:18:03;6.93;;;6.32;;
37657;SDS011;23500;53.268;8.308;2023-05-07T02:20:31;7.80;;;7.10;;
37657;SDS011;23500;53.268;8.308;2023-05-07T02:22:56;7.22;;;6.63;;
37657;SDS011;23500;53.268;8.308;2023-05-07T02:25:22;6.80;;;6.20;;
37657;SDS011;23500;53.268;8.308;2023-05-07T02:27:48;7.53;;;6.88;;
37657;SDS011;23500;53.268;8.308;2023-05-07T02:30:14;7.22;;;6.63;;
37657;SDS011;23500;53.268;8.308;2023-05-07T02:32:39;7.10;;;6.50;;
37657;SDS011;23500;53.268;8.308;2023-05-07T02:35:05;7.63;;;6.93;;
37657;SDS011;23500;53.268;8.308;2023-05-07T02:37:31;6.70;;;6.10;;
37657;SDS011;23500;53.268;8.308;2023-05-07T02:39:57;7.18;;;6.57;;
37657;SDS011;23500;53.268;8.308;2023-05-07T02:42:22;7.55;;;6.85;;
37657;SDS011;23500;53.268;8.308;2023-05-07T02:44:48;7.40;;;6.70;;
37657;SDS011;23500;53.268;8.308;2023-05-07T02:47:14;7.50;;;6.80;;
37657;SDS011;23500;53.268;8.308;2023-05-07T02:49:40;7.72;;;6.95;;
37657;SDS011;23500;53.268;8.308;2023-05-07T02:52:06;7.30;;;6.60;;
37657;SDS011;23500;53.268;8.308;2023-05-07T02:54:32;7.45;;;6.75;;
37657;SDS011;23500;53.268;8.308;2023-05-07T02:56:57;7.82;;;7.13;;
37657;SDS011;23500;53.268;8.308;2023-05-07T02:59:23;7.72;;;7.03;;
37657;SDS011;23500;53.268;8.308;2023-05-07T03:01:51;7.10;;;6.50;;
37657;SDS011;23500;53.268;8.308;2023-05-07T03:04:16;7.22;;;6.63;;
37657;SDS011;23500;53.268;8.308;2023-05-07T03:06:42;7.72;;;7.03;;
37657;SDS011;23500;53.268;8.308;2023-05-07T03:09:08;6.75;;;6.15;;
37657;SDS011;23500;53.268;8.308;2023-05-07T03:11:34;7.55;;;6.85;;
37657;SDS011;23500;53.268;8.308;2023-05-07T03:14:00;6.85;;;6.28;;
37657;SDS011;23500;53.268;8.308;2023-05-07T03:16:26;7.57;;;6.88;;
37657;SDS011;23500;53.268;8.308;2023-05-07T03:18:52;7.32;;;6.63;;
37657;SDS011;23500;53.268;8.308;2023-05-07T03:21:18;7.10;;;6.47;;
37657;SDS011;23500;53.268;8.308;2023-05-07T03:23:43;7.28;;;6.57;;
37657;SDS011;23500;53.268;8.308;2023-05-07T03:26:09;6.93;;;6.32;;
37657;SDS011;23500;53.268;8.308;2023-05-07T03:28:36;7.35;;;6.75;;
37657;SDS011;23500;53.268;8.308;2023-05-07T03:31:02;7.47;;;6.78;;
37657;SDS011;23500;53.268;8.308;2023-05-07T03:33:27;7.57;;;6.88;;
37657;SDS011;23500;53.268;8.308;2023-05-07T03:35:53;6.90;;;6.35;;
37657;SDS011;23500;53.268;8.308;2023-05-07T03:38:19;7.57;;;6.88;;
37657;SDS011;23500;53.268;8.308;2023-05-07T03:40:44;7.20;;;6.57;;
37657;SDS011;23500;53.268;8.308;2023-05-07T03:43:10;7.72;;;7.05;;
37657;SDS011;23500;53.268;8.308;2023-05-07T03:45:36;7.43;;;6.72;;
37657;SDS011;23500;53.268;8.308;2023-05-07T03:48:01;7.65;;;6.95;;
37657;SDS011;23500;53.268;8.308;2023-05-07T03:50:27;7.28;;;6.68;;
37657;SDS011;23500;53.268;8.308;2023-05-07T03:52:53;7.40;;;6.70;;
37657;SDS011;23500;53.268;8.308;2023-05-07T03:55:18;7.13;;;6.53;;
37657;SDS011;23500;53.268;8.308;2023-05-07T03:57:44;7.00;;;6.40;;
37657;SDS011;23500;53.268;8.308;2023-05-07T04:00:10;7.03;;;6.40;;
37657;SDS011;23500;53.268;8.308;2023-05-07T04:02:36;7.65;;;6.95;;
37657;SDS011;23500;53.268;8.308;2023-05-07T04:05:02;7.40;;;6.72;;
37657;SDS011;23500;53.268;8.308;2023-05-07T04:07:28;7.03;;;6.35;;
37657;SDS011;23500;53.268;8.308;2023-05-07T04:09:53;7.47;;;6.80;;
37657;SDS011;23500;53.268;8.308;2023-05-07T04:12:19;7.22;;;6.55;;
37657;SDS011;23500;53.268;8.308;2023-05-07T04:14:45;7.03;;;6.43;;
37657;SDS011;23500;53.268;8.308;2023-05-07T04:17:10;6.97;;;6.38;;
37657;SDS011;23500;53.268;8.308;2023-05-07T04:19:36;7.18;;;6.47;;
37657;SDS011;23500;53.268;8.308;2023-05-07T04:22:02;6.93;;;6.32;;
37657;SDS011;23500;53.268;8.308;2023-05-07T04:24:28;7.20;;;6.60;;
37657;SDS011;23500;53.268;8.308;2023-05-07T04:26:57;6.88;;;6.28;;
37657;SDS011;23500;53.268;8.308;2023-05-07T04:29:23;6.85;;;6.22;;
37657;SDS011;23500;53.268;8.308;2023-05-07T04:31:49;7.20;;;6.53;;
37657;SDS011;23500;53.268;8.308;2023-05-07T04:34:15;7.05;;;6.45;;
37657;SDS011;23500;53.268;8.308;2023-05-07T04:36:41;6.55;;;5.95;;
37657;SDS011;23500;53.268;8.308;2023-05-07T04:39:07;7.13;;;6.53;;
37657;SDS011;23500;53.268;8.308;2023-05-07T04:41:33;7.70;;;6.72;;
37657;SDS011;23500;53.268;8.308;2023-05-07T04:44:01;7.28;;;6.57;;
37657;SDS011;23500;53.268;8.308;2023-05-07T04:46:29;6.88;;;6.28;;
37657;SDS011;23500;53.268;8.308;2023-05-07T04:48:55;7.35;;;6.70;;
37657;SDS011;23500;53.268;8.308;2023-05-07T04:51:21;7.15;;;6.55;;
37657;SDS011;23500;53.268;8.308;2023-05-07T04:53:47;6.53;;;5.97;;
37657;SDS011;23500;53.268;8.308;2023-05-07T04:56:13;7.55;;;6.85;;
37657;SDS011;23500;53.268;8.308;2023-05-07T04:58:39;6.93;;;6.32;;
37657;SDS011;23500;53.268;8.308;2023-05-07T05:01:04;6.85;;;6.25;;
37657;SDS011;23500;53.268;8.308;2023-05-07T05:03:31;7.03;;;6.35;;
37657;SDS011;23500;53.268;8.308;2023-05-07T05:05:56;7.32;;;6.63;;
37657;SDS011;23500;53.268;8.308;2023-05-07T05:08:24;7.05;;;6.43;;
37657;SDS011;23500;53.268;8.308;2023-05-07T05:10:50;7.40;;;6.70;;
37657;SDS011;23500;53.268;8.308;2023-05-07T05:13:15;7.50;;;6.80;;
37657;SDS011;23500;53.268;8.308;2023-05-07T05:15:41;6.88;;;6.28;;
37657;SDS011;23500;53.268;8.308;2023-05-07T05:18:07;6.53;;;5.93;;
37657;SDS011;23500;53.268;8.308;2023-05-07T05:20:32;6.70;;;6.10;;
37657;SDS011;23500;53.268;8.308;2023-05-07T05:22:58;6.72;;;6.13;;
37657;SDS011;23500;53.268;8.308;2023-05-07T05:25:24;6.55;;;5.95;;
37657;SDS011;23500;53.268;8.308;2023-05-07T05:27:49;6.38;;;5.78;;
37657;SDS011;23500;53.268;8.308;2023-05-07T05:30:15;6.40;;;5.90;;
37657;SDS011;23500;53.268;8.308;2023-05-07T05:32:41;6.18;;;5.63;;
37657;SDS011;23500;53.268;8.308;2023-05-07T05:35:06;6.18;;;5.65;;
37657;SDS011;23500;53.268;8.308;2023-05-07T05:37:32;5.80;;;5.30;;
37657;SDS011;23500;53.268;8.308;2023-05-07T05:39:58;6.53;;;5.93;;
37657;SDS011;23500;53.268;8.308;2023-05-07T05:42:24;5.95;;;5.45;;
37657;SDS011;23500;53.268;8.308;2023-05-07T05:44:50;6.45;;;5.85;;
37657;SDS011;23500;53.268;8.308;2023-05-07T05:47:15;6.38;;;5.80;;
37657;SDS011;23500;53.268;8.308;2023-05-07T05:49:41;6.60;;;6.00;;
37657;SDS011;23500;53.268;8.308;2023-05-07T05:52:08;6.13;;;5.63;;
37657;SDS011;23500;53.268;8.308;2023-05-07T05:54:34;6.57;;;5.97;;
37657;SDS011;23500;53.268;8.308;2023-05-07T05:56:59;7.10;;;6.43;;
37657;SDS011;23500;53.268;8.308;2023-05-07T05:59:25;6.07;;;5.57;;
37657;SDS011;23500;53.268;8.308;2023-05-07T06:01:51;6.68;;;6.07;;
37657;SDS011;23500;53.268;8.308;2023-05-07T06:04:16;6.43;;;5.82;;
37657;SDS011;23500;53.268;8.308;2023-05-07T06:06:42;6.53;;;5.93;;
37657;SDS011;23500;53.268;8.308;2023-05-07T06:09:07;6.70;;;6.10;;
37657;SDS011;23500;53.268;8.308;2023-05-07T06:11:33;6.53;;;5.93;;
37657;SDS011;23500;53.268;8.308;2023-05-07T06:13:59;6.45;;;5.85;;
37657;SDS011;23500;53.268;8.308;2023-05-07T06:16:24;6.97;;;6.18;;
37657;SDS011;23500;53.268;8.308;2023-05-07T06:18:50;6.05;;;5.50;;
37657;SDS011;23500;53.268;8.308;2023-05-07T06:21:16;6.28;;;5.75;;
37657;SDS011;23500;53.268;8.308;2023-05-07T06:23:41;6.00;;;5.50;;
37657;SDS011;23500;53.268;8.308;2023-05-07T06:26:07;9.30;;;6.82;;
37657;SDS011;23500;53.268;8.308;2023-05-07T06:28:33;9.82;;;6.63;;
37657;SDS011;23500;53.268;8.308;2023-05-07T06:31:17;7.07;;;6.10;;
37657;SDS011;23500;53.268;8.308;2023-05-07T06:33:47;10.05;;;5.63;;
37657;SDS011;23500;53.268;8.308;2023-05-07T06:36:13;9.85;;;6.30;;
37657;SDS011;23500;53.268;8.308;2023-05-07T06:38:39;6.93;;;5.90;;
37657;SDS011;23500;53.268;8.308;2023-05-07T06:41:07;6.93;;;6.10;;
37657;SDS011;23500;53.268;8.308;2023-05-07T06:43:33;6.60;;;5.90;;
37657;SDS011;23500;53.268;8.308;2023-05-07T06:45:59;6.00;;;5.40;;
37657;SDS011;23500;53.268;8.308;2023-05-07T06:48:24;6.60;;;5.90;;
37657;SDS011;23500;53.268;8.308;2023-05-07T06:50:50;6.28;;;5.68;;
37657;SDS011;23500;53.268;8.308;2023-05-07T06:53:16;6.65;;;5.80;;
37657;SDS011;23500;53.268;8.308;2023-05-07T06:55:41;7.28;;;5.93;;
37657;SDS011;23500;53.268;8.308;2023-05-07T06:58:07;6.07;;;5.47;;
37657;SDS011;23500;53.268;8.308;2023-05-07T07:00:32;6.25;;;5.07;;
37657;SDS011;23500;53.268;8.308;2023-05-07T07:02:58;6.55;;;5.88;;
37657;SDS011;23500;53.268;8.308;2023-05-07T07:05:25;7.32;;;5.35;;
37657;SDS011;23500;53.268;8.308;2023-05-07T07:07:51;6.75;;;5.30;;
37657;SDS011;23500;53.268;8.308;2023-05-07T07:10:19;6.72;;;5.50;;
37657;SDS011;23500;53.268;8.308;2023-05-07T07:12:45;6.10;;;5.43;;
37657;SDS011;23500;53.268;8.308;2023-05-07T07:15:11;5.93;;;5.30;;
37657;SDS011;23500;53.268;8.308;2023-05-07T07:17:38;7.13;;;5.20;;
37657;SDS011;23500;53.268;8.308;2023-05-07T07:20:04;5.40;;;4.82;;
37657;SDS011;23500;53.268;8.308;2023-05-07T07:22:30;6.32;;;4.82;;
37657;SDS011;23500;53.268;8.308;2023-05-07T07:24:56;8.45;;;5.10;;
37657;SDS011;23500;53.268;8.308;2023-05-07T07:27:21;6.70;;;5.30;;
37657;SDS011;23500;53.268;8.308;2023-05-07T07:29:47;5.85;;;4.90;;
37657;SDS011;23500;53.268;8.308;2023-05-07T07:32:13;6.50;;;5.13;;
37657;SDS011;23500;53.268;8.308;2023-05-07T07:34:39;5.93;;;5.13;;
37657;SDS011;23500;53.268;8.308;2023-05-07T07:37:04;6.60;;;5.25;;
37657;SDS011;23500;53.268;8.308;2023-05-07T07:39:34;5.90;;;4.60;;
37657;SDS011;23500;53.268;8.308;2023-05-07T07:42:02;4.90;;;4.35;;
37657;SDS011;23500;53.268;8.308;2023-05-07T07:44:28;5.30;;;4.78;;
37657;SDS011;23500;53.268;8.308;2023-05-07T07:46:53;5.18;;;4.65;;
37657;SDS011;23500;53.268;8.308;2023-05-07T07:49:19;5.32;;;4.80;;
37657;SDS011;23500;53.268;8.308;2023-05-07T07:51:45;6.03;;;5.03;;
37657;SDS011;23500;53.268;8.308;2023-05-07T07:54:11;5.20;;;4.70;;
37657;SDS011;23500;53.268;8.308;2023-05-07T07:56:37;6.32;;;5.10;;
37657;SDS011;23500;53.268;8.308;2023-05-07T07:59:03;6.25;;;5.07;;
37657;SDS011;23500;53.268;8.308;2023-05-07T08:01:29;5.80;;;4.72;;
37657;SDS011;23500;53.268;8.308;2023-05-07T08:03:55;6.03;;;5.00;;
37657;SDS011;23500;53.268;8.308;2023-05-07T08:06:23;7.05;;;5.00;;
37657;SDS011;23500;53.268;8.308;2023-05-07T08:08:50;6.30;;;4.97;;
37657;SDS011;23500;53.268;8.308;2023-05-07T08:11:16;5.82;;;4.72;;
37657;SDS011;23500;53.268;8.308;2023-05-07T08:13:42;5.97;;;5.28;;
37657;SDS011;23500;53.268;8.308;2023-05-07T08:16:08;5.25;;;4.70;;
37657;SDS011;23500;53.268;8.308;2023-05-07T08:18:34;6.10;;;4.53;;
37657;SDS011;23500;53.268;8.308;2023-05-07T08:20:59;5.72;;;4.80;;
37657;SDS011;23500;53.268;8.308;2023-05-07T08:23:26;8.02;;;4.80;;
37657;SDS011;23500;53.268;8.308;2023-05-07T08:25:51;6.22;;;5.05;;
37657;SDS011;23500;53.268;8.308;2023-05-07T08:28:17;5.65;;;4.75;;
37657;SDS011;23500;53.268;8.308;2023-05-07T08:30:44;6.07;;;5.28;;
37657;SDS011;23500;53.268;8.308;2023-05-07T08:33:10;6.88;;;4.90;;
37657;SDS011;23500;53.268;8.308;2023-05-07T08:35:36;6.15;;;4.80;;
37657;SDS011;23500;53.268;8.308;2023-05-07T08:38:01;6.78;;;4.88;;
37657;SDS011;23500;53.268;8.308;2023-05-07T08:40:27;5.47;;;4.80;;
37657;SDS011;23500;53.268;8.308;2023-05-07T08:42:54;5.45;;;4.45;;
37657;SDS011;23500;53.268;8.308;2023-05-07T08:45:21;6.68;;;5.28;;
37657;SDS011;23500;53.268;8.308;2023-05-07T08:47:50;5.38;;;4.63;;
37657;SDS011;23500;53.268;8.308;2023-05-07T08:50:19;7.03;;;4.75;;
37657;SDS011;23500;53.268;8.308;2023-05-07T08:52:45;5.32;;;4.68;;
37657;SDS011;23500;53.268;8.308;2023-05-07T08:55:12;5.07;;;4.40;;
37657;SDS011;23500;53.268;8.308;2023-05-07T08:57:38;6.13;;;4.88;;
37657;SDS011;23500;53.268;8.308;2023-05-07T09:00:04;5.75;;;4.60;;
37657;SDS011;23500;53.268;8.308;2023-05-07T09:02:32;6.53;;;4.63;;
37657;SDS011;23500;53.268;8.308;2023-05-07T09:04:58;5.68;;;4.95;;
37657;SDS011;23500;53.268;8.308;2023-05-07T09:07:24;6.05;;;4.50;;
37657;SDS011;23500;53.268;8.308;2023-05-07T09:09:51;5.97;;;5.00;;
37657;SDS011;23500;53.268;8.308;2023-05-07T09:12:17;5.53;;;4.50;;
37657;SDS011;23500;53.268;8.308;2023-05-07T09:14:46;6.22;;;5.03;;
37657;SDS011;23500;53.268;8.308;2023-05-07T09:17:12;5.20;;;4.25;;
37657;SDS011;23500;53.268;8.308;2023-05-07T09:19:40;5.40;;;4.80;;
37657;SDS011;23500;53.268;8.308;2023-05-07T09:22:06;5.03;;;4.25;;
37657;SDS011;23500;53.268;8.308;2023-05-07T09:24:34;5.15;;;4.55;;
37657;SDS011;23500;53.268;8.308;2023-05-07T09:27:02;6.20;;;4.90;;
37657;SDS011;23500;53.268;8.308;2023-05-07T09:29:29;6.38;;;4.28;;
37657;SDS011;23500;53.268;8.308;2023-05-07T09:31:57;5.88;;;4.68;;
37657;SDS011;23500;53.268;8.308;2023-05-07T09:34:23;5.22;;;4.40;;
37657;SDS011;23500;53.268;8.308;2023-05-07T09:36:49;5.00;;;4.43;;
37657;SDS011;23500;53.268;8.308;2023-05-07T09:39:15;5.32;;;4.65;;
37657;SDS011;23500;53.268;8.308;2023-05-07T09:41:44;5.30;;;4.57;;
37657;SDS011;23500;53.268;8.308;2023-05-07T09:44:14;5.28;;;4.65;;
37657;SDS011;23500;53.268;8.308;2023-05-07T09:46:42;5.82;;;4.70;;
37657;SDS011;23500;53.268;8.308;2023-05-07T09:49:12;5.60;;;5.00;;
37657;SDS011;23500;53.268;8.308;2023-05-07T09:51:45;6.22;;;4.70;;
37657;SDS011;23500;53.268;8.308;2023-05-07T09:54:15;6.35;;;4.80;;
37657;SDS011;23500;53.268;8.308;2023-05-07T09:56:41;6.10;;;5.07;;
37657;SDS011;23500;53.268;8.308;2023-05-07T09:59:13;8.07;;;4.85;;
37657;SDS011;23500;53.268;8.308;2023-05-07T10:01:41;5.07;;;4.57;;
37657;SDS011;23500;53.268;8.308;2023-05-07T10:04:08;5.00;;;4.50;;
37657;SDS011;23500;53.268;8.308;2023-05-07T10:06:34;5.07;;;4.55;;
37657;SDS011;23500;53.268;8.308;2023-05-07T10:09:00;5.00;;;4.43;;
37657;SDS011;23500;53.268;8.308;2023-05-07T10:11:27;4.90;;;4.32;;
37657;SDS011;23500;53.268;8.308;2023-05-07T10:13:53;5.28;;;4.63;;
37657;SDS011;23500;53.268;8.308;2023-05-07T10:16:20;6.15;;;4.95;;
37657;SDS011;23500;53.268;8.308;2023-05-07T10:18:46;5.25;;;4.53;;
37657;SDS011;23500;53.268;8.308;2023-05-07T10:23:49;6.97;;;4.40;;
37657;SDS011;23500;53.268;8.308;2023-05-07T10:26:17;4.97;;;4.40;;
37657;SDS011;23500;53.268;8.308;2023-05-07T10:28:46;5.00;;;4.35;;
37657;SDS011;23500;53.268;8.308;2023-05-07T10:31:23;5.93;;;4.75;;
37657;SDS011;23500;53.268;8.308;2023-05-07T10:33:59;5.75;;;4.60;;
37657;SDS011;23500;53.268;8.308;2023-05-07T10:36:25;5.50;;;4.70;;
37657;SDS011;23500;53.268;8.308;2023-05-07T10:38:52;5.20;;;4.70;;
37657;SDS011;23500;53.268;8.308;2023-05-07T10:41:18;5.35;;;4.85;;
37657;SDS011;23500;53.268;8.308;2023-05-07T10:43:46;5.20;;;4.40;;
37657;SDS011;23500;53.268;8.308;2023-05-07T10:46:16;5.28;;;4.75;;
37657;SDS011;23500;53.268;8.308;2023-05-07T10:49:24;4.60;;;4.20;;
37657;SDS011;23500;53.268;8.308;2023-05-07T10:51:31;4.85;;;4.28;;
37657;SDS011;23500;53.268;8.308;2023-05-07T10:56:39;5.13;;;4.63;;
37657;SDS011;23500;53.268;8.308;2023-05-07T11:02:06;4.88;;;4.20;;
37657;SDS011;23500;53.268;8.308;2023-05-07T11:04:34;5.18;;;4.20;;
37657;SDS011;23500;53.268;8.308;2023-05-07T11:12:17;6.85;;;4.95;;
37657;SDS011;23500;53.268;8.308;2023-05-07T11:15:10;6.75;;;4.72;;
37657;SDS011;23500;53.268;8.308;2023-05-07T11:17:53;6.20;;;4.50;;
37657;SDS011;23500;53.268;8.308;2023-05-07T11:20:19;6.60;;;5.22;;
37657;SDS011;23500;53.268;8.308;2023-05-07T11:22:45;5.85;;;4.75;;
37657;SDS011;23500;53.268;8.308;2023-05-07T11:25:14;6.03;;;4.57;;
37657;SDS011;23500;53.268;8.308;2023-05-07T11:27:46;6.50;;;4.97;;
37657;SDS011;23500;53.268;8.308;2023-05-07T11:30:18;7.65;;;5.05;;
37657;SDS011;23500;53.268;8.308;2023-05-07T11:32:46;6.82;;;4.95;;
37657;SDS011;23500;53.268;8.308;2023-05-07T11:35:12;7.63;;;5.00;;
37657;SDS011;23500;53.268;8.308;2023-05-07T11:37:40;6.53;;;4.90;;
37657;SDS011;23500;53.268;8.308;2023-05-07T11:40:07;6.65;;;5.00;;
37657;SDS011;23500;53.268;8.308;2023-05-07T11:42:36;5.03;;;4.50;;
37657;SDS011;23500;53.268;8.308;2023-05-07T11:45:03;7.53;;;4.85;;
37657;SDS011;23500;53.268;8.308;2023-05-07T11:47:32;6.57;;;5.15;;
37657;SDS011;23500;53.268;8.308;2023-05-07T11:50:03;5.60;;;5.10;;
37657;SDS011;23500;53.268;8.308;2023-05-07T11:52:30;5.53;;;4.93;;
37657;SDS011;23500;53.268;8.308;2023-05-07T11:54:56;7.18;;;5.10;;
37657;SDS011;23500;53.268;8.308;2023-05-07T11:57:23;7.32;;;4.93;;
37657;SDS011;23500;53.268;8.308;2023-05-07T11:59:52;6.60;;;4.93;;
37657;SDS011;23500;53.268;8.308;2023-05-07T12:02:19;6.80;;;5.03;;
37657;SDS011;23500;53.268;8.308;2023-05-07T12:04:44;5.57;;;4.95;;
37657;SDS011;23500;53.268;8.308;2023-05-07T12:07:13;6.15;;;5.05;;
37657;SDS011;23500;53.268;8.308;2023-05-07T12:09:40;6.97;;;5.00;;
37657;SDS011;23500;53.268;8.308;2023-05-07T12:12:06;6.00;;;5.32;;
37657;SDS011;23500;53.268;8.308;2023-05-07T12:14:32;7.65;;;5.38;;
37657;SDS011;23500;53.268;8.308;2023-05-07T12:17:02;6.65;;;4.90;;
37657;SDS011;23500;53.268;8.308;2023-05-07T12:19:29;6.70;;;5.10;;
37657;SDS011;23500;53.268;8.308;2023-05-07T12:21:55;6.22;;;4.75;;
37657;SDS011;23500;53.268;8.308;2023-05-07T12:24:21;7.43;;;5.50;;
37657;SDS011;23500;53.268;8.308;2023-05-07T12:26:47;5.40;;;4.90;;
37657;SDS011;23500;53.268;8.308;2023-05-07T12:29:13;6.22;;;5.03;;
37657;SDS011;23500;53.268;8.308;2023-05-07T12:31:43;6.53;;;5.57;;
37657;SDS011;23500;53.268;8.308;2023-05-07T12:34:12;5.85;;;5.25;;
37657;SDS011;23500;53.268;8.308;2023-05-07T12:36:38;8.02;;;5.53;;
37657;SDS011;23500;53.268;8.308;2023-05-07T12:39:08;6.60;;;4.93;;
37657;SDS011;23500;53.268;8.308;2023-05-07T12:41:57;5.85;;;5.25;;
37657;SDS011;23500;53.268;8.308;2023-05-07T12:44:32;6.68;;;5.07;;
37657;SDS011;23500;53.268;8.308;2023-05-07T12:47:01;6.57;;;5.53;;
37657;SDS011;23500;53.268;8.308;2023-05-07T12:49:27;6.13;;;5.13;;
37657;SDS011;23500;53.268;8.308;2023-05-07T12:51:53;6.88;;;5.00;;
37657;SDS011;23500;53.268;8.308;2023-05-07T12:54:35;7.85;;;5.25;;
37657;SDS011;23500;53.268;8.308;2023-05-07T12:57:06;5.13;;;4.63;;
37657;SDS011;23500;53.268;8.308;2023-05-07T12:59:37;7.15;;;5.32;;
37657;SDS011;23500;53.268;8.308;2023-05-07T13:02:04;6.63;;;4.75;;
37657;SDS011;23500;53.268;8.308;2023-05-07T13:04:31;6.53;;;5.25;;
37657;SDS011;23500;53.268;8.308;2023-05-07T13:06:57;7.07;;;5.57;;
37657;SDS011;23500;53.268;8.308;2023-05-07T13:09:23;5.90;;;5.15;;
37657;SDS011;23500;53.268;8.308;2023-05-07T13:11:48;5.60;;;5.10;;
37657;SDS011;23500;53.268;8.308;2023-05-07T13:14:14;6.25;;;5.35;;
37657;SDS011;23500;53.268;8.308;2023-05-07T13:16:40;5.35;;;4.85;;
37657;SDS011;23500;53.268;8.308;2023-05-07T13:19:06;6.03;;;5.38;;
37657;SDS011;23500;53.268;8.308;2023-05-07T13:21:32;6.95;;;5.60;;
37657;SDS011;23500;53.268;8.308;2023-05-07T13:23:57;5.63;;;5.03;;
37657;SDS011;23500;53.268;8.308;2023-05-07T13:26:23;6.93;;;5.45;;
37657;SDS011;23500;53.268;8.308;2023-05-07T13:28:49;6.03;;;5.35;;
37657;SDS011;23500;53.268;8.308;2023-05-07T13:31:16;7.75;;;5.40;;
37657;SDS011;23500;53.268;8.308;2023-05-07T13:33:42;7.05;;;5.43;;
37657;SDS011;23500;53.268;8.308;2023-05-07T13:36:08;6.53;;;5.28;;
37657;SDS011;23500;53.268;8.308;2023-05-07T13:38:34;6.30;;;5.47;;
37657;SDS011;23500;53.268;8.308;2023-05-07T13:41:00;5.95;;;5.45;;
37657;SDS011;23500;53.268;8.308;2023-05-07T13:43:25;8.80;;;5.57;;
37657;SDS011;23500;53.268;8.308;2023-05-07T13:45:51;6.43;;;5.32;;
37657;SDS011;23500;53.268;8.308;2023-05-07T13:48:17;7.45;;;5.80;;
37657;SDS011;23500;53.268;8.308;2023-05-07T13:50:42;7.50;;;5.40;;
37657;SDS011;23500;53.268;8.308;2023-05-07T13:53:08;8.77;;;5.53;;
37657;SDS011;23500;53.268;8.308;2023-05-07T13:55:34;7.63;;;5.97;;
37657;SDS011;23500;53.268;8.308;2023-05-07T13:58:00;6.45;;;5.75;;
37657;SDS011;23500;53.268;8.308;2023-05-07T14:00:27;5.47;;;4.93;;
37657;SDS011;23500;53.268;8.308;2023-05-07T14:02:54;6.38;;;5.72;;
37657;SDS011;23500;53.268;8.308;2023-05-07T14:05:21;5.85;;;5.10;;
37657;SDS011;23500;53.268;8.308;2023-05-07T14:07:48;7.30;;;5.43;;
37657;SDS011;23500;53.268;8.308;2023-05-07T14:10:16;6.03;;;5.35;;
37657;SDS011;23500;53.268;8.308;2023-05-07T14:12:43;6.22;;;5.63;;
37657;SDS011;23500;53.268;8.308;2023-05-07T14:15:09;6.90;;;6.00;;
37657;SDS011;23500;53.268;8.308;2023-05-07T14:17:35;6.30;;;5.20;;
37657;SDS011;23500;53.268;8.308;2023-05-07T14:20:01;6.10;;;5.50;;
37657;SDS011;23500;53.268;8.308;2023-05-07T14:22:27;6.55;;;5.80;;
37657;SDS011;23500;53.268;8.308;2023-05-07T14:24:53;9.20;;;6.15;;
37657;SDS011;23500;53.268;8.308;2023-05-07T14:27:19;7.70;;;5.22;;
37657;SDS011;23500;53.268;8.308;2023-05-07T14:29:45;7.22;;;5.50;;
37657;SDS011;23500;53.268;8.308;2023-05-07T14:32:15;6.43;;;5.50;;
37657;SDS011;23500;53.268;8.308;2023-05-07T14:34:44;6.10;;;5.40;;
37657;SDS011;23500;53.268;8.308;2023-05-07T14:37:10;5.90;;;5.30;;
37657;SDS011;23500;53.268;8.308;2023-05-07T14:39:36;6.05;;;5.45;;
37657;SDS011;23500;53.268;8.308;2023-05-07T14:42:02;6.32;;;5.72;;
37657;SDS011;23500;53.268;8.308;2023-05-07T14:44:27;6.47;;;5.57;;
37657;SDS011;23500;53.268;8.308;2023-05-07T14:46:53;5.88;;;5.28;;
37657;SDS011;23500;53.268;8.308;2023-05-07T14:49:19;6.97;;;5.70;;
37657;SDS011;23500;53.268;8.308;2023-05-07T14:51:45;6.43;;;5.90;;
37657;SDS011;23500;53.268;8.308;2023-05-07T14:54:12;6.00;;;5.40;;
37657;SDS011;23500;53.268;8.308;2023-05-07T14:56:38;6.65;;;5.95;;
37657;SDS011;23500;53.268;8.308;2023-05-07T14:59:05;6.03;;;5.43;;